<?xml version="1.0" encoding="UTF-8" standalone="no" ?>
<gpx xmlns="http://www.topografix.com/GPX/1/1" xmlns:xsi="http://www.w3.org/2001/XMLSchema-instance" xsi:schemaLocation="http://www.topografix.com/GPX/1/1 http://www.topografix.com/GPX/1/1/gpx.xsd" version="1.1" creator="VisuGPX - https://www.visugpx.com">
  <metadata>
    <name>Tracé actuel: 18 FEV 2012 08:55</name>
  </metadata>
  <trk>
    <name><![CDATA[Tracé actuel: 18 FEV 2012 08:55]]></name>
    <trkseg>
      <trkpt lat="44.73615" lon="6.83426">
        <ele>1693.02</ele>
        <time>2012-02-18T07:58:43Z</time>
      </trkpt>
      <trkpt lat="44.73401" lon="6.83328">
        <ele>1675.23</ele>
        <time>2012-02-18T08:04:50Z</time>
      </trkpt>
      <trkpt lat="44.73475" lon="6.83176">
        <ele>1690.62</ele>
        <time>2012-02-18T08:08:10Z</time>
      </trkpt>
      <trkpt lat="44.73366" lon="6.83025">
        <ele>1731.95</ele>
        <time>2012-02-18T08:12:50Z</time>
      </trkpt>
      <trkpt lat="44.73386" lon="6.82915">
        <ele>1755.02</ele>
        <time>2012-02-18T08:15:44Z</time>
      </trkpt>
      <trkpt lat="44.73311" lon="6.82978">
        <ele>1774.73</ele>
        <time>2012-02-18T08:18:28Z</time>
      </trkpt>
      <trkpt lat="44.73215" lon="6.82512">
        <ele>1896.82</ele>
        <time>2012-02-18T08:35:20Z</time>
      </trkpt>
      <trkpt lat="44.73115" lon="6.82296">
        <ele>1940.56</ele>
        <time>2012-02-18T08:41:33Z</time>
      </trkpt>
      <trkpt lat="44.73053" lon="6.82288">
        <ele>1958.34</ele>
        <time>2012-02-18T08:43:35Z</time>
      </trkpt>
      <trkpt lat="44.73163" lon="6.82084">
        <ele>1995.83</ele>
        <time>2012-02-18T08:48:45Z</time>
      </trkpt>
      <trkpt lat="44.73259" lon="6.82006">
        <ele>2021.79</ele>
        <time>2012-02-18T08:51:53Z</time>
      </trkpt>
      <trkpt lat="44.73361" lon="6.81983">
        <ele>2036.21</ele>
        <time>2012-02-18T08:54:18Z</time>
      </trkpt>
      <trkpt lat="44.73195" lon="6.81844">
        <ele>2086.2</ele>
        <time>2012-02-18T09:00:41Z</time>
      </trkpt>
      <trkpt lat="44.7321" lon="6.81792">
        <ele>2103.5</ele>
        <time>2012-02-18T09:02:45Z</time>
      </trkpt>
      <trkpt lat="44.73195" lon="6.8171">
        <ele>2121.29</ele>
        <time>2012-02-18T09:05:04Z</time>
      </trkpt>
      <trkpt lat="44.73109" lon="6.8143">
        <ele>2157.82</ele>
        <time>2012-02-18T09:11:11Z</time>
      </trkpt>
      <trkpt lat="44.73024" lon="6.81394">
        <ele>2161.18</ele>
        <time>2012-02-18T09:17:28Z</time>
      </trkpt>
      <trkpt lat="44.72993" lon="6.81292">
        <ele>2163.1</ele>
        <time>2012-02-18T09:18:38Z</time>
      </trkpt>
      <trkpt lat="44.72641" lon="6.81163">
        <ele>2200.59</ele>
        <time>2012-02-18T09:34:57Z</time>
      </trkpt>
      <trkpt lat="44.72464" lon="6.81043">
        <ele>2215.98</ele>
        <time>2012-02-18T09:39:30Z</time>
      </trkpt>
      <trkpt lat="44.72411" lon="6.80995">
        <ele>2220.3</ele>
        <time>2012-02-18T09:41:04Z</time>
      </trkpt>
      <trkpt lat="44.71933" lon="6.80831">
        <ele>2238.57</ele>
        <time>2012-02-18T09:52:26Z</time>
      </trkpt>
      <trkpt lat="44.71631" lon="6.80867">
        <ele>2262.12</ele>
        <time>2012-02-18T09:59:50Z</time>
      </trkpt>
      <trkpt lat="44.71463" lon="6.81043">
        <ele>2291.44</ele>
        <time>2012-02-18T10:10:49Z</time>
      </trkpt>
      <trkpt lat="44.71293" lon="6.81109">
        <ele>2297.69</ele>
        <time>2012-02-18T10:18:01Z</time>
      </trkpt>
      <trkpt lat="44.71184" lon="6.81445">
        <ele>2359.69</ele>
        <time>2012-02-18T10:27:30Z</time>
      </trkpt>
      <trkpt lat="44.71104" lon="6.81583">
        <ele>2360.65</ele>
        <time>2012-02-18T10:30:34Z</time>
      </trkpt>
      <trkpt lat="44.70624" lon="6.81679">
        <ele>2414.97</ele>
        <time>2012-02-18T10:46:55Z</time>
      </trkpt>
      <trkpt lat="44.70409" lon="6.81847">
        <ele>2444.77</ele>
        <time>2012-02-18T10:53:49Z</time>
      </trkpt>
      <trkpt lat="44.70359" lon="6.82057">
        <ele>2479.86</ele>
        <time>2012-02-18T11:01:59Z</time>
      </trkpt>
      <trkpt lat="44.70313" lon="6.82118">
        <ele>2487.07</ele>
        <time>2012-02-18T11:03:29Z</time>
      </trkpt>
      <trkpt lat="44.6988" lon="6.82293">
        <ele>2595.7</ele>
        <time>2012-02-18T11:22:17Z</time>
      </trkpt>
      <trkpt lat="44.69634" lon="6.82477">
        <ele>2702.4</ele>
        <time>2012-02-18T11:36:18Z</time>
      </trkpt>
      <trkpt lat="44.69597" lon="6.82613">
        <ele>2745.66</ele>
        <time>2012-02-18T11:43:09Z</time>
      </trkpt>
      <trkpt lat="44.69479" lon="6.82469">
        <ele>2778.83</ele>
        <time>2012-02-18T11:59:53Z</time>
      </trkpt>
      <trkpt lat="44.69442" lon="6.82315">
        <ele>2803.82</ele>
        <time>2012-02-18T12:03:38Z</time>
      </trkpt>
      <trkpt lat="44.69426" lon="6.82287">
        <ele>2807.67</ele>
        <time>2012-02-18T12:04:18Z</time>
      </trkpt>
      <trkpt lat="44.69224" lon="6.82192">
        <ele>2844.2</ele>
        <time>2012-02-18T12:16:57Z</time>
      </trkpt>
      <trkpt lat="44.69443" lon="6.82318">
        <ele>2801.42</ele>
        <time>2012-02-18T12:36:05Z</time>
      </trkpt>
      <trkpt lat="44.69479" lon="6.82464">
        <ele>2778.83</ele>
        <time>2012-02-18T12:39:03Z</time>
      </trkpt>
      <trkpt lat="44.69592" lon="6.82617">
        <ele>2746.14</ele>
        <time>2012-02-18T12:40:04Z</time>
      </trkpt>
      <trkpt lat="44.69578" lon="6.82535">
        <ele>2726.92</ele>
        <time>2012-02-18T12:41:45Z</time>
      </trkpt>
      <trkpt lat="44.69619" lon="6.82467">
        <ele>2698.08</ele>
        <time>2012-02-18T12:42:58Z</time>
      </trkpt>
      <trkpt lat="44.69688" lon="6.82462">
        <ele>2677.89</ele>
        <time>2012-02-18T12:44:32Z</time>
      </trkpt>
      <trkpt lat="44.69871" lon="6.82319">
        <ele>2604.83</ele>
        <time>2012-02-18T12:47:02Z</time>
      </trkpt>
      <trkpt lat="44.69862" lon="6.82285">
        <ele>2600.5</ele>
        <time>2012-02-18T12:47:11Z</time>
      </trkpt>
      <trkpt lat="44.70422" lon="6.82105">
        <ele>2491.39</ele>
        <time>2012-02-18T12:53:23Z</time>
      </trkpt>
      <trkpt lat="44.70665" lon="6.81825">
        <ele>2454.86</ele>
        <time>2012-02-18T12:55:43Z</time>
      </trkpt>
      <trkpt lat="44.70791" lon="6.81725">
        <ele>2415.45</ele>
        <time>2012-02-18T12:58:04Z</time>
      </trkpt>
      <trkpt lat="44.71065" lon="6.81664">
        <ele>2379.4</ele>
        <time>2012-02-18T13:00:09Z</time>
      </trkpt>
      <trkpt lat="44.71262" lon="6.81361">
        <ele>2343.35</ele>
        <time>2012-02-18T13:32:03Z</time>
      </trkpt>
      <trkpt lat="44.71316" lon="6.81197">
        <ele>2311.15</ele>
        <time>2012-02-18T13:33:30Z</time>
      </trkpt>
      <trkpt lat="44.71611" lon="6.80885">
        <ele>2264.04</ele>
        <time>2012-02-18T13:36:57Z</time>
      </trkpt>
      <trkpt lat="44.7173" lon="6.80827">
        <ele>2248.18</ele>
        <time>2012-02-18T13:38:57Z</time>
      </trkpt>
      <trkpt lat="44.72244" lon="6.80918">
        <ele>2226.55</ele>
        <time>2012-02-18T13:46:35Z</time>
      </trkpt>
      <trkpt lat="44.72372" lon="6.80962">
        <ele>2213.09</ele>
        <time>2012-02-18T13:47:13Z</time>
      </trkpt>
      <trkpt lat="44.72818" lon="6.81291">
        <ele>2190.5</ele>
        <time>2012-02-18T13:51:45Z</time>
      </trkpt>
      <trkpt lat="44.72893" lon="6.81443">
        <ele>2181.37</ele>
        <time>2012-02-18T13:53:58Z</time>
      </trkpt>
      <trkpt lat="44.72996" lon="6.81628">
        <ele>2157.82</ele>
        <time>2012-02-18T13:58:09Z</time>
      </trkpt>
      <trkpt lat="44.73043" lon="6.81697">
        <ele>2138.59</ele>
        <time>2012-02-18T13:59:10Z</time>
      </trkpt>
      <trkpt lat="44.73005" lon="6.81801">
        <ele>2128.98</ele>
        <time>2012-02-18T13:59:53Z</time>
      </trkpt>
      <trkpt lat="44.73053" lon="6.81922">
        <ele>2091.49</ele>
        <time>2012-02-18T14:01:37Z</time>
      </trkpt>
      <trkpt lat="44.73087" lon="6.81922">
        <ele>2093.89</ele>
        <time>2012-02-18T14:02:33Z</time>
      </trkpt>
      <trkpt lat="44.73085" lon="6.81965">
        <ele>2081.87</ele>
        <time>2012-02-18T14:03:25Z</time>
      </trkpt>
      <trkpt lat="44.73175" lon="6.81981">
        <ele>2048.23</ele>
        <time>2012-02-18T14:05:33Z</time>
      </trkpt>
      <trkpt lat="44.73219" lon="6.82084">
        <ele>1997.28</ele>
        <time>2012-02-18T14:07:54Z</time>
      </trkpt>
      <trkpt lat="44.73142" lon="6.82254">
        <ele>1946.81</ele>
        <time>2012-02-18T14:10:11Z</time>
      </trkpt>
      <trkpt lat="44.73175" lon="6.82399">
        <ele>1920.37</ele>
        <time>2012-02-18T14:10:57Z</time>
      </trkpt>
      <trkpt lat="44.73147" lon="6.82496">
        <ele>1903.55</ele>
        <time>2012-02-18T14:11:47Z</time>
      </trkpt>
      <trkpt lat="44.73158" lon="6.82526">
        <ele>1895.86</ele>
        <time>2012-02-18T14:11:57Z</time>
      </trkpt>
      <trkpt lat="44.73111" lon="6.82553">
        <ele>1880.48</ele>
        <time>2012-02-18T14:14:10Z</time>
      </trkpt>
      <trkpt lat="44.7327" lon="6.82706">
        <ele>1840.1</ele>
        <time>2012-02-18T14:16:10Z</time>
      </trkpt>
      <trkpt lat="44.73258" lon="6.8281">
        <ele>1804.05</ele>
        <time>2012-02-18T14:17:48Z</time>
      </trkpt>
      <trkpt lat="44.73312" lon="6.82954">
        <ele>1780.98</ele>
        <time>2012-02-18T14:18:34Z</time>
      </trkpt>
      <trkpt lat="44.73328" lon="6.82995">
        <ele>1765.6</ele>
        <time>2012-02-18T14:19:00Z</time>
      </trkpt>
      <trkpt lat="44.73353" lon="6.82952">
        <ele>1747.81</ele>
        <time>2012-02-18T14:19:31Z</time>
      </trkpt>
      <trkpt lat="44.7337" lon="6.8303">
        <ele>1731.95</ele>
        <time>2012-02-18T14:19:57Z</time>
      </trkpt>
      <trkpt lat="44.73414" lon="6.83043">
        <ele>1724.26</ele>
        <time>2012-02-18T14:20:23Z</time>
      </trkpt>
      <trkpt lat="44.73438" lon="6.83101">
        <ele>1714.17</ele>
        <time>2012-02-18T14:20:48Z</time>
      </trkpt>
      <trkpt lat="44.73476" lon="6.83119">
        <ele>1704.07</ele>
        <time>2012-02-18T14:20:57Z</time>
      </trkpt>
      <trkpt lat="44.73413" lon="6.83336">
        <ele>1676.68</ele>
        <time>2012-02-18T14:23:43Z</time>
      </trkpt>
      <trkpt lat="44.73614" lon="6.83429">
        <ele>1703.11</ele>
        <time>2012-02-18T14:34:40Z</time>
      </trkpt>
      <trkpt lat="44.73619" lon="6.8343">
        <ele>1704.07</ele>
        <time>2012-02-18T14:34:55Z</time>
      </trkpt>
    </trkseg>
  </trk>
</gpx>